Thursday, October 30, 2014
15:14 UTC
  |  Log In   |  Register Free
Airport Search:

Okmulgee Regional Airport
(KOKM)

Okmulgee Regional Airport Diagram
No Airport Diagram Available

FAA data valid effective September 18, 2014 - November 13, 2014 (unless otherwise noted).

 
 
 
 
 
 
 
 
 
 
 
 
 
 

Current Aviation Weather for Okmulgee Regional Airport (KOKM)

The most recent METAR observation for KOKM was updated at: 1414
METAR Summary (Translated METAR)
KOKM
301355Z AUTO 22005KT 10SM CLR 10/07 A3012 RMK AO2 T00960065
KF10
081459Z 31001KT 16/16 RMK PK WND 29004KT PCPN 1/3/6/12/24H 0.00 0.01 0.02 0.02 0.04
(16 nm SW from KOKM)
KRVS
301353Z 00000KT 10SM CLR 12/08 A3011 RMK AO2 SLP202 T01170078
(22.4 nm NW from KOKM)
TAF Summary (Translated TAF)
KRVS
(22.4 nm NW from KOKM)
301120Z 3012/3112 00000KT P6SM FEW250 FM301500 22009KT P6SM SKC FM301900 34009KT P6SM SKC FM310000 36004KT P6SM SKC
  Airport Weather Conditions for KOKM

 Current Weather at OKM
49° F
Fair
Southwest winds at 5.8 mph
OKM NOAA Radar

Pressure: 30.12 in
Humidity: 81%
Wind: Southwest at 5.8 MPH (5 KT)
Dew Point: 43.7°F
Visibility: 10.00 mi


Airport Weather Forecast for KOKM

Translated METAR and TAF for KOKM
Translated METAR for KOKM (1509 UTC 30 October 2014)
found at http://aviationweather.gov/adds/metars/
 
METAR text: KOKM 301455Z AUTO 22005KT 10SM SCT080 14/08 A3013 RMK AO2 T01350080
Conditions at: KOKM (OKMULGEE , OK, US) observed 1455 UTC 30 October 2014
Temperature: 13.5°C (56°F)
Dewpoint: 8.0°C (46°F) [RH = 69%]
Pressure (altimeter): 30.13 inches Hg (1020.4 mb)
Winds: from the SW (220 degrees) at 6 MPH (5 knots; 2.6 m/s)
Visibility: 10 or more miles (16+ km)
Ceiling: at least 12,000 feet AGL
Clouds: scattered clouds at 8000 feet AGL
Weather: automated observation with no human augmentation;
there may or may not be significant weather present at this time
Translated TAF for KOKM

There is no translated TAF available for this airport

Find All Airport Services Find A Hotel Find A Rental Car Find A Golf Course Find A Restaurant $100 Hamburger



FBO's on the Field
FBO Company Facility Photos Services Transportation Aviation Fuel Prices: Prices include tax
Catering Weather Repair Courtesy Rental Type 100LL JetA JetA+ MOGAS 8087
 
Okmulgee Regional Airport

This FBO has not yet been rated
FS:Phillips 66
Last Updated: Oct-20
Login to update fuel prices
SS:
Contact Okmulgee Regional AirportMore FBO Information
 
Add another FBO Facility Photos Catering Weather Repair Courtesy Rental Type 100LL JetA JetA+ MOGAS 8087
Services Transportation Aviation Fuel Prices: Prices include tax


model-print
model-print
model-print
model-print